sensor_id;sensor_type;location;lat;lon;timestamp;pressure;altitude;pressure_sealevel;temperature;humidity
54876;BME280;40764;48.472;8.166;2023-06-22T00:01:03;98178.38;;;20.65;100.00
54876;BME280;40764;48.472;8.166;2023-06-22T00:07:07;98235.97;;;20.68;100.00
54876;BME280;40764;48.472;8.166;2023-06-22T00:13:09;98219.50;;;20.59;100.00
54876;BME280;40764;48.472;8.166;2023-06-22T00:19:17;98229.97;;;20.50;100.00
54876;BME280;40764;48.472;8.166;2023-06-22T00:25:19;98214.03;;;20.63;100.00
54876;BME280;40764;48.472;8.166;2023-06-22T00:31:19;98197.91;;;20.53;100.00
54876;BME280;40764;48.472;8.166;2023-06-22T00:37:20;98192.47;;;20.40;100.00
54876;BME280;40764;48.472;8.166;2023-06-22T00:43:25;98184.75;;;20.34;100.00
54876;BME280;40764;48.472;8.166;2023-06-22T00:49:26;98182.41;;;20.20;100.00
54876;BME280;40764;48.472;8.166;2023-06-22T00:55:26;98189.84;;;20.16;100.00
54876;BME280;40764;48.472;8.166;2023-06-22T01:01:27;98189.13;;;20.19;100.00
54876;BME280;40764;48.472;8.166;2023-06-22T01:13:57;98189.31;;;19.95;100.00
54876;BME280;40764;48.472;8.166;2023-06-22T01:20:00;98181.91;;;19.99;100.00
54876;BME280;40764;48.472;8.166;2023-06-22T01:32:20;98204.91;;;19.99;100.00
54876;BME280;40764;48.472;8.166;2023-06-22T01:38:21;98196.56;;;19.68;100.00
54876;BME280;40764;48.472;8.166;2023-06-22T01:44:24;98193.50;;;19.73;100.00
54876;BME280;40764;48.472;8.166;2023-06-22T01:50:26;98205.00;;;19.59;100.00
54876;BME280;40764;48.472;8.166;2023-06-22T01:56:26;98189.19;;;19.60;100.00
54876;BME280;40764;48.472;8.166;2023-06-22T02:02:48;98186.34;;;19.44;100.00
54876;BME280;40764;48.472;8.166;2023-06-22T02:08:57;98183.91;;;19.55;100.00
54876;BME280;40764;48.472;8.166;2023-06-22T02:15:00;98175.38;;;19.19;100.00
54876;BME280;40764;48.472;8.166;2023-06-22T02:21:01;98157.53;;;19.33;100.00
54876;BME280;40764;48.472;8.166;2023-06-22T02:27:02;98146.91;;;19.07;100.00
54876;BME280;40764;48.472;8.166;2023-06-22T02:33:02;98149.31;;;19.36;100.00
54876;BME280;40764;48.472;8.166;2023-06-22T02:39:03;98136.41;;;19.12;100.00
54876;BME280;40764;48.472;8.166;2023-06-22T02:45:04;98143.19;;;19.15;100.00
54876;BME280;40764;48.472;8.166;2023-06-22T02:51:04;98133.72;;;18.88;100.00
54876;BME280;40764;48.472;8.166;2023-06-22T02:57:05;98128.53;;;19.14;100.00
54876;BME280;40764;48.472;8.166;2023-06-22T03:03:05;98121.06;;;19.03;100.00
54876;BME280;40764;48.472;8.166;2023-06-22T03:09:05;98124.16;;;18.85;100.00
54876;BME280;40764;48.472;8.166;2023-06-22T03:15:10;98109.63;;;18.76;100.00
54876;BME280;40764;48.472;8.166;2023-06-22T03:21:11;98124.94;;;18.86;100.00
54876;BME280;40764;48.472;8.166;2023-06-22T03:27:11;98113.63;;;18.91;100.00
54876;BME280;40764;48.472;8.166;2023-06-22T03:33:11;98123.91;;;18.78;100.00
54876;BME280;40764;48.472;8.166;2023-06-22T03:39:12;98111.03;;;18.70;100.00
54876;BME280;40764;48.472;8.166;2023-06-22T03:45:13;98101.72;;;18.63;100.00
54876;BME280;40764;48.472;8.166;2023-06-22T03:51:16;98096.38;;;18.70;100.00
54876;BME280;40764;48.472;8.166;2023-06-22T03:57:16;98101.09;;;18.81;100.00
54876;BME280;40764;48.472;8.166;2023-06-22T04:03:17;98088.00;;;18.94;100.00
54876;BME280;40764;48.472;8.166;2023-06-22T04:09:21;98082.81;;;18.93;100.00
54876;BME280;40764;48.472;8.166;2023-06-22T04:15:22;98075.50;;;19.00;100.00
54876;BME280;40764;48.472;8.166;2023-06-22T04:21:22;98065.94;;;18.98;100.00
54876;BME280;40764;48.472;8.166;2023-06-22T04:27:22;98056.84;;;19.13;100.00
54876;BME280;40764;48.472;8.166;2023-06-22T04:33:23;98050.34;;;19.21;100.00
54876;BME280;40764;48.472;8.166;2023-06-22T04:39:24;98047.94;;;19.35;100.00
54876;BME280;40764;48.472;8.166;2023-06-22T04:45:24;98045.00;;;19.44;100.00
54876;BME280;40764;48.472;8.166;2023-06-22T04:51:25;98040.00;;;19.49;100.00
54876;BME280;40764;48.472;8.166;2023-06-22T04:57:30;98037.16;;;19.62;100.00
54876;BME280;40764;48.472;8.166;2023-06-22T05:03:32;98037.88;;;19.74;100.00
54876;BME280;40764;48.472;8.166;2023-06-22T05:09:32;98036.06;;;19.82;100.00
54876;BME280;40764;48.472;8.166;2023-06-22T05:15:34;98025.03;;;20.01;100.00
54876;BME280;40764;48.472;8.166;2023-06-22T05:21:41;98024.63;;;20.19;100.00
54876;BME280;40764;48.472;8.166;2023-06-22T05:27:42;98023.69;;;20.30;100.00
54876;BME280;40764;48.472;8.166;2023-06-22T05:33:44;98014.75;;;20.56;100.00
54876;BME280;40764;48.472;8.166;2023-06-22T05:39:44;98020.66;;;20.74;100.00
54876;BME280;40764;48.472;8.166;2023-06-22T05:45:44;98017.94;;;20.97;100.00
54876;BME280;40764;48.472;8.166;2023-06-22T05:51:45;98021.44;;;21.13;100.00
54876;BME280;40764;48.472;8.166;2023-06-22T05:57:45;98024.00;;;21.45;100.00
54876;BME280;40764;48.472;8.166;2023-06-22T06:03:46;98023.03;;;21.60;100.00
54876;BME280;40764;48.472;8.166;2023-06-22T06:09:46;98015.88;;;22.08;100.00
54876;BME280;40764;48.472;8.166;2023-06-22T06:15:48;98012.97;;;22.58;95.39
54876;BME280;40764;48.472;8.166;2023-06-22T06:21:48;98012.00;;;23.10;89.54
54876;BME280;40764;48.472;8.166;2023-06-22T06:27:50;97999.28;;;23.53;83.28
54876;BME280;40764;48.472;8.166;2023-06-22T06:33:51;98005.09;;;23.82;82.96
54876;BME280;40764;48.472;8.166;2023-06-22T06:39:51;97992.72;;;23.75;84.79
54876;BME280;40764;48.472;8.166;2023-06-22T06:45:52;97990.13;;;24.04;83.39
54876;BME280;40764;48.472;8.166;2023-06-22T06:51:52;97994.19;;;24.21;83.49
54876;BME280;40764;48.472;8.166;2023-06-22T06:57:52;98007.06;;;24.32;83.85
54876;BME280;40764;48.472;8.166;2023-06-22T07:03:53;98021.53;;;24.56;80.68
54876;BME280;40764;48.472;8.166;2023-06-22T07:09:54;98027.28;;;24.88;80.44
54876;BME280;40764;48.472;8.166;2023-06-22T07:15:54;98021.84;;;25.48;78.96
54876;BME280;40764;48.472;8.166;2023-06-22T07:21:54;98024.63;;;25.59;76.07
54876;BME280;40764;48.472;8.166;2023-06-22T07:28:03;98046.19;;;25.37;78.97
54876;BME280;40764;48.472;8.166;2023-06-22T07:34:04;98066.91;;;25.11;80.30
54876;BME280;40764;48.472;8.166;2023-06-22T07:40:05;98101.72;;;25.28;78.49
54876;BME280;40764;48.472;8.166;2023-06-22T07:46:06;98169.53;;;25.00;79.56
54876;BME280;40764;48.472;8.166;2023-06-22T07:52:07;98114.19;;;24.61;80.89
54876;BME280;40764;48.472;8.166;2023-06-22T07:58:07;98064.69;;;24.65;83.44
54876;BME280;40764;48.472;8.166;2023-06-22T08:04:08;98041.66;;;24.93;86.30
54876;BME280;40764;48.472;8.166;2023-06-22T08:10:11;98051.31;;;25.10;86.61
54876;BME280;40764;48.472;8.166;2023-06-22T08:16:11;98046.56;;;25.28;84.32
54876;BME280;40764;48.472;8.166;2023-06-22T08:22:12;98040.22;;;25.49;80.00
54876;BME280;40764;48.472;8.166;2023-06-22T08:28:12;98045.06;;;25.77;77.11
54876;BME280;40764;48.472;8.166;2023-06-22T08:34:13;98064.25;;;26.11;75.93
54876;BME280;40764;48.472;8.166;2023-06-22T08:40:13;98051.03;;;26.36;72.24
54876;BME280;40764;48.472;8.166;2023-06-22T08:46:14;98034.09;;;26.75;69.63
54876;BME280;40764;48.472;8.166;2023-06-22T08:52:14;98031.22;;;27.00;68.02
54876;BME280;40764;48.472;8.166;2023-06-22T08:58:15;98022.28;;;27.16;67.50
54876;BME280;40764;48.472;8.166;2023-06-22T09:04:15;98014.44;;;27.56;65.61
54876;BME280;40764;48.472;8.166;2023-06-22T09:10:16;97998.13;;;27.36;69.20
54876;BME280;40764;48.472;8.166;2023-06-22T09:16:17;97990.22;;;27.21;69.44
54876;BME280;40764;48.472;8.166;2023-06-22T09:22:18;97961.00;;;27.18;69.29
54876;BME280;40764;48.472;8.166;2023-06-22T09:28:18;97967.06;;;27.06;70.23
54876;BME280;40764;48.472;8.166;2023-06-22T09:34:19;97959.44;;;27.10;69.87
54876;BME280;40764;48.472;8.166;2023-06-22T09:40:20;97948.63;;;27.60;68.67
54876;BME280;40764;48.472;8.166;2023-06-22T09:46:20;97963.03;;;27.66;68.32
54876;BME280;40764;48.472;8.166;2023-06-22T09:52:31;97960.88;;;27.32;68.29
54876;BME280;40764;48.472;8.166;2023-06-22T09:58:36;97966.16;;;27.23;67.35
54876;BME280;40764;48.472;8.166;2023-06-22T10:04:39;97932.56;;;27.64;66.44
54876;BME280;40764;48.472;8.166;2023-06-22T10:10:40;97925.88;;;28.30;64.67
54876;BME280;40764;48.472;8.166;2023-06-22T10:16:40;97951.06;;;28.41;66.37
54876;BME280;40764;48.472;8.166;2023-06-22T10:22:41;97940.66;;;28.37;67.31
54876;BME280;40764;48.472;8.166;2023-06-22T10:28:45;97950.97;;;28.78;66.68
54876;BME280;40764;48.472;8.166;2023-06-22T10:34:48;97937.94;;;28.95;66.38
54876;BME280;40764;48.472;8.166;2023-06-22T10:40:48;97933.59;;;29.14;64.86
54876;BME280;40764;48.472;8.166;2023-06-22T10:46:48;97927.50;;;29.19;63.60
54876;BME280;40764;48.472;8.166;2023-06-22T10:52:49;97916.47;;;29.05;65.16
54876;BME280;40764;48.472;8.166;2023-06-22T10:58:49;97913.91;;;29.14;63.89
54876;BME280;40764;48.472;8.166;2023-06-22T11:04:49;97918.97;;;29.26;64.00
54876;BME280;40764;48.472;8.166;2023-06-22T11:10:51;97929.25;;;29.09;64.04
54876;BME280;40764;48.472;8.166;2023-06-22T11:16:51;97959.53;;;29.28;62.52
54876;BME280;40764;48.472;8.166;2023-06-22T11:22:54;97964.94;;;29.16;63.81
54876;BME280;40764;48.472;8.166;2023-06-22T11:28:55;97984.91;;;29.25;65.15
54876;BME280;40764;48.472;8.166;2023-06-22T11:34:55;97989.25;;;29.29;65.13
54876;BME280;40764;48.472;8.166;2023-06-22T11:40:57;97984.56;;;29.19;64.72
54876;BME280;40764;48.472;8.166;2023-06-22T11:46:58;97972.56;;;29.15;65.30
54876;BME280;40764;48.472;8.166;2023-06-22T11:53:01;97984.50;;;28.65;68.21
54876;BME280;40764;48.472;8.166;2023-06-22T11:59:01;97987.47;;;28.51;66.48
54876;BME280;40764;48.472;8.166;2023-06-22T12:05:02;98003.53;;;28.51;67.64
54876;BME280;40764;48.472;8.166;2023-06-22T12:11:04;98005.94;;;28.86;66.29
54876;BME280;40764;48.472;8.166;2023-06-22T12:17:25;97994.41;;;29.08;63.98
54876;BME280;40764;48.472;8.166;2023-06-22T12:23:28;98001.16;;;29.41;65.94
54876;BME280;40764;48.472;8.166;2023-06-22T12:29:29;97987.31;;;29.53;66.60
54876;BME280;40764;48.472;8.166;2023-06-22T12:35:29;97989.88;;;29.68;66.25
54876;BME280;40764;48.472;8.166;2023-06-22T12:41:29;97990.91;;;29.77;64.22
54876;BME280;40764;48.472;8.166;2023-06-22T12:47:31;97986.22;;;29.71;64.33
54876;BME280;40764;48.472;8.166;2023-06-22T12:53:31;97991.44;;;30.19;56.84
54876;BME280;40764;48.472;8.166;2023-06-22T12:59:31;98007.94;;;30.40;56.77
54876;BME280;40764;48.472;8.166;2023-06-22T13:05:32;98008.97;;;30.50;55.71
54876;BME280;40764;48.472;8.166;2023-06-22T13:11:35;97992.91;;;30.04;56.73
54876;BME280;40764;48.472;8.166;2023-06-22T13:17:36;98006.13;;;29.83;55.98
54876;BME280;40764;48.472;8.166;2023-06-22T13:23:36;97989.88;;;29.68;54.86
54876;BME280;40764;48.472;8.166;2023-06-22T13:29:37;97986.59;;;29.49;54.17
54876;BME280;40764;48.472;8.166;2023-06-22T13:36:02;97972.88;;;29.24;55.07
54876;BME280;40764;48.472;8.166;2023-06-22T13:42:04;97970.09;;;29.48;53.15
54876;BME280;40764;48.472;8.166;2023-06-22T13:48:05;97948.66;;;30.01;52.03
54876;BME280;40764;48.472;8.166;2023-06-22T13:54:05;97928.78;;;29.88;49.09
54876;BME280;40764;48.472;8.166;2023-06-22T14:00:07;97936.94;;;30.26;48.35
54876;BME280;40764;48.472;8.166;2023-06-22T14:06:12;97921.91;;;32.34;44.05
54876;BME280;40764;48.472;8.166;2023-06-22T14:12:13;97909.25;;;31.32;46.50
54876;BME280;40764;48.472;8.166;2023-06-22T14:18:13;97901.44;;;31.69;46.02
54876;BME280;40764;48.472;8.166;2023-06-22T14:24:14;97910.63;;;31.89;46.98
54876;BME280;40764;48.472;8.166;2023-06-22T14:30:15;97930.97;;;31.52;46.12
54876;BME280;40764;48.472;8.166;2023-06-22T14:36:17;97929.13;;;31.09;48.84
54876;BME280;40764;48.472;8.166;2023-06-22T14:42:26;97913.28;;;30.59;47.97
54876;BME280;40764;48.472;8.166;2023-06-22T14:48:26;97892.72;;;30.23;49.02
54876;BME280;40764;48.472;8.166;2023-06-22T14:54:27;97895.13;;;29.81;48.54
54876;BME280;40764;48.472;8.166;2023-06-22T15:00:27;97908.88;;;29.75;48.66
54876;BME280;40764;48.472;8.166;2023-06-22T15:06:28;97908.34;;;30.07;47.64
54876;BME280;40764;48.472;8.166;2023-06-22T15:12:28;97897.13;;;29.80;49.44
54876;BME280;40764;48.472;8.166;2023-06-22T15:18:28;97886.59;;;30.08;48.36
54876;BME280;40764;48.472;8.166;2023-06-22T15:24:29;97896.66;;;30.05;49.21
54876;BME280;40764;48.472;8.166;2023-06-22T15:30:32;97902.53;;;31.42;45.70
54876;BME280;40764;48.472;8.166;2023-06-22T15:36:34;97899.00;;;31.38;45.38
54876;BME280;40764;48.472;8.166;2023-06-22T15:42:35;97899.72;;;30.90;45.13
54876;BME280;40764;48.472;8.166;2023-06-22T15:48:42;97911.97;;;31.68;43.37
54876;BME280;40764;48.472;8.166;2023-06-22T15:54:43;97899.53;;;31.33;44.20
54876;BME280;40764;48.472;8.166;2023-06-22T16:00:43;97894.63;;;32.28;41.91
54876;BME280;40764;48.472;8.166;2023-06-22T16:06:44;97872.03;;;33.33;38.91
54876;BME280;40764;48.472;8.166;2023-06-22T16:12:45;97865.78;;;33.25;38.99
54876;BME280;40764;48.472;8.166;2023-06-22T16:18:45;97875.31;;;32.26;41.90
54876;BME280;40764;48.472;8.166;2023-06-22T16:24:47;97859.28;;;31.62;42.83
54876;BME280;40764;48.472;8.166;2023-06-22T16:30:56;97856.16;;;31.89;42.14
54876;BME280;40764;48.472;8.166;2023-06-22T16:36:58;97860.53;;;32.60;40.10
54876;BME280;40764;48.472;8.166;2023-06-22T16:43:01;97854.53;;;32.58;39.86
54876;BME280;40764;48.472;8.166;2023-06-22T16:49:02;97865.00;;;31.74;40.98
54876;BME280;40764;48.472;8.166;2023-06-22T16:55:06;97881.88;;;31.62;42.15
54876;BME280;40764;48.472;8.166;2023-06-22T17:01:07;97904.38;;;30.80;42.29
54876;BME280;40764;48.472;8.166;2023-06-22T17:07:25;97900.16;;;30.33;43.14
54876;BME280;40764;48.472;8.166;2023-06-22T17:13:29;97888.56;;;29.64;45.32
54876;BME280;40764;48.472;8.166;2023-06-22T17:19:29;97865.28;;;29.13;46.07
54876;BME280;40764;48.472;8.166;2023-06-22T17:25:32;97902.75;;;29.34;45.87
54876;BME280;40764;48.472;8.166;2023-06-22T17:31:37;97908.28;;;28.87;47.27
54876;BME280;40764;48.472;8.166;2023-06-22T17:37:55;97924.44;;;28.49;46.82
54876;BME280;40764;48.472;8.166;2023-06-22T17:43:57;97920.72;;;28.25;47.73
54876;BME280;40764;48.472;8.166;2023-06-22T17:50:05;97907.22;;;28.13;48.04
54876;BME280;40764;48.472;8.166;2023-06-22T17:56:05;97924.69;;;27.90;49.79
54876;BME280;40764;48.472;8.166;2023-06-22T18:08:09;97912.59;;;27.55;50.75
54876;BME280;40764;48.472;8.166;2023-06-22T18:14:09;97935.88;;;27.52;51.68
54876;BME280;40764;48.472;8.166;2023-06-22T18:20:10;97941.66;;;27.31;51.22
54876;BME280;40764;48.472;8.166;2023-06-22T18:32:33;97971.50;;;27.03;52.49
54876;BME280;40764;48.472;8.166;2023-06-22T18:38:44;97976.75;;;26.91;52.77
54876;BME280;40764;48.472;8.166;2023-06-22T18:44:59;97989.63;;;26.77;53.49
54876;BME280;40764;48.472;8.166;2023-06-22T18:51:15;97992.91;;;26.65;53.77
54876;BME280;40764;48.472;8.166;2023-06-22T18:57:26;98042.59;;;26.50;54.77
54876;BME280;40764;48.472;8.166;2023-06-22T19:03:34;98086.59;;;24.56;68.62
54876;BME280;40764;48.472;8.166;2023-06-22T19:09:35;98105.13;;;22.75;84.77
54876;BME280;40764;48.472;8.166;2023-06-22T19:15:35;98114.13;;;21.89;92.76
54876;BME280;40764;48.472;8.166;2023-06-22T19:21:40;98129.22;;;21.23;93.53
54876;BME280;40764;48.472;8.166;2023-06-22T19:27:40;98137.81;;;20.80;96.36
54876;BME280;40764;48.472;8.166;2023-06-22T19:33:41;98148.56;;;20.46;99.56
54876;BME280;40764;48.472;8.166;2023-06-22T19:39:41;98217.78;;;20.39;100.00
54876;BME280;40764;48.472;8.166;2023-06-22T19:45:47;98233.97;;;20.21;100.00
54876;BME280;40764;48.472;8.166;2023-06-22T19:51:47;98254.22;;;20.06;100.00
54876;BME280;40764;48.472;8.166;2023-06-22T19:57:49;98278.19;;;19.98;100.00
54876;BME280;40764;48.472;8.166;2023-06-22T20:03:55;98294.63;;;19.91;100.00
54876;BME280;40764;48.472;8.166;2023-06-22T20:10:22;98273.41;;;19.83;100.00
54876;BME280;40764;48.472;8.166;2023-06-22T20:16:22;98292.81;;;19.83;100.00
54876;BME280;40764;48.472;8.166;2023-06-22T20:22:23;98267.84;;;19.67;100.00
54876;BME280;40764;48.472;8.166;2023-06-22T20:28:25;98250.06;;;19.84;100.00
54876;BME280;40764;48.472;8.166;2023-06-22T20:34:26;98240.75;;;19.76;100.00
54876;BME280;40764;48.472;8.166;2023-06-22T20:40:28;98232.22;;;19.41;100.00
54876;BME280;40764;48.472;8.166;2023-06-22T20:46:28;98231.38;;;19.53;100.00
54876;BME280;40764;48.472;8.166;2023-06-22T20:52:31;98231.75;;;19.95;100.00
54876;BME280;40764;48.472;8.166;2023-06-22T20:58:31;98262.84;;;19.73;100.00
54876;BME280;40764;48.472;8.166;2023-06-22T21:04:31;98260.31;;;19.68;100.00
54876;BME280;40764;48.472;8.166;2023-06-22T21:10:33;98244.09;;;19.54;100.00
54876;BME280;40764;48.472;8.166;2023-06-22T21:16:33;98265.19;;;19.59;100.00
54876;BME280;40764;48.472;8.166;2023-06-22T21:22:34;98275.25;;;19.51;100.00
54876;BME280;40764;48.472;8.166;2023-06-22T21:28:35;98282.22;;;19.33;100.00
54876;BME280;40764;48.472;8.166;2023-06-22T21:34:38;98288.94;;;19.32;100.00
54876;BME280;40764;48.472;8.166;2023-06-22T21:40:38;98284.66;;;19.34;100.00
54876;BME280;40764;48.472;8.166;2023-06-22T21:46:39;98286.56;;;19.58;100.00
54876;BME280;40764;48.472;8.166;2023-06-22T21:52:39;98288.09;;;19.56;100.00
54876;BME280;40764;48.472;8.166;2023-06-22T21:58:40;98299.66;;;19.33;100.00
54876;BME280;40764;48.472;8.166;2023-06-22T22:04:40;98302.06;;;19.47;100.00
54876;BME280;40764;48.472;8.166;2023-06-22T22:10:41;98298.97;;;19.36;100.00
54876;BME280;40764;48.472;8.166;2023-06-22T22:16:42;98295.25;;;19.44;100.00
54876;BME280;40764;48.472;8.166;2023-06-22T22:22:43;98307.34;;;19.52;100.00
54876;BME280;40764;48.472;8.166;2023-06-22T22:28:44;98300.81;;;19.44;100.00
54876;BME280;40764;48.472;8.166;2023-06-22T22:34:44;98298.63;;;19.38;100.00
54876;BME280;40764;48.472;8.166;2023-06-22T22:40:50;98297.69;;;19.46;100.00
54876;BME280;40764;48.472;8.166;2023-06-22T22:46:52;98312.50;;;19.78;100.00
54876;BME280;40764;48.472;8.166;2023-06-22T22:52:53;98313.22;;;19.75;100.00
54876;BME280;40764;48.472;8.166;2023-06-22T22:58:53;98307.34;;;19.52;100.00
54876;BME280;40764;48.472;8.166;2023-06-22T23:04:57;98310.91;;;19.65;100.00
54876;BME280;40764;48.472;8.166;2023-06-22T23:11:00;98320.75;;;19.62;100.00
54876;BME280;40764;48.472;8.166;2023-06-22T23:17:03;98332.53;;;19.59;100.00
54876;BME280;40764;48.472;8.166;2023-06-22T23:23:03;98322.00;;;19.65;100.00
54876;BME280;40764;48.472;8.166;2023-06-22T23:29:03;98315.34;;;19.54;100.00
54876;BME280;40764;48.472;8.166;2023-06-22T23:35:05;98317.16;;;19.62;100.00
54876;BME280;40764;48.472;8.166;2023-06-22T23:41:10;98317.19;;;19.49;100.00
54876;BME280;40764;48.472;8.166;2023-06-22T23:47:11;98351.44;;;19.17;100.00
54876;BME280;40764;48.472;8.166;2023-06-22T23:53:12;98379.50;;;18.91;100.00
54876;BME280;40764;48.472;8.166;2023-06-22T23:59:13;98388.63;;;18.79;100.00
